»·PEaware :: SKY26 KORS-KEAT

SKY26 :: KORS-KEAT

FLIGHT INFORMATION

Flight Status: Arrived
Operator:
Sky High Charters
More flights by this operator :: More flights under this callsign
Pilot: Utku A. (15598)
Aircraft: PIPER PA-44 SEMINOLE
(PA44)
More flights by this aircraft type
Origin: KORS Orcas I
United States
Destination: KEAT Pangborn Meml
United States
More flights between these airports :: More routes between these airports
Route: +FEGBA2 FEGBA SEA V2 ELN V25 EAT
File this flight plan on PilotEdge
Remarks: SKY HIGH MISSION 3 - LEG 3
Altitude:
(Current/Filed)
9,000ft
Speed:
(Current/Filed)
250kts
Departed: 18-Feb-19 01:40 PM
Arrived: 18-Feb-19 02:47 PM
Distance/Time
Traveled:
134nm/1:07
Distance/Time
To Go:
Arrived

Flight Plot

Page will automatically refresh every two minutes.

Flight plan parsing failed; only flown route is shown


Map Options




Map Legend


Flown Route
Filed Route
Departure Airport
Arrival Airport
Navaid (VOR, NDB)
Fix

Horizontal Profiles

Position Reports

Time Latitude Longitude Heading Altitude Ground
Speed
18-Feb-19 13:23 48.706508 -122.909569 205 33ft 0kts
18-Feb-19 13:24 48.706508 -122.909569 205 33ft 0kts
18-Feb-19 13:25 48.706508 -122.909569 205 33ft 0kts
18-Feb-19 13:26 48.706508 -122.909569 205 33ft 0kts
18-Feb-19 13:27 48.706508 -122.909569 205 33ft 0kts
18-Feb-19 13:28 48.706508 -122.909569 205 33ft 0kts
18-Feb-19 13:29 48.706508 -122.909569 205 33ft 0kts
18-Feb-19 13:30 48.706508 -122.909569 205 33ft 0kts
18-Feb-19 13:31 48.706664 -122.909934 284 33ft 3kts
18-Feb-19 13:32 48.708359 -122.910007 359 26ft 8kts
18-Feb-19 13:33 48.710513 -122.909986 0 22ft 8kts
18-Feb-19 13:34 48.711835 -122.909974 359 19ft 0kts
18-Feb-19 13:35 48.711836 -122.909974 0 19ft 0kts
18-Feb-19 13:36 48.711835 -122.909974 359 19ft 0kts
18-Feb-19 13:37 48.711835 -122.909974 359 19ft 0kts
18-Feb-19 13:38 48.711835 -122.909974 359 19ft 0kts
18-Feb-19 13:39 48.712102 -122.910529 231 18ft 1kts
18-Feb-19 13:40 48.698925 -122.910743 177 652ft 96kts
18-Feb-19 13:41 48.670832 -122.911874 179 2229ft 105kts
18-Feb-19 13:42 48.641052 -122.912585 177 3741ft 111kts
18-Feb-19 13:43 48.608347 -122.912380 181 5104ft 128kts
18-Feb-19 13:43 48.578201 -122.913837 175 6383ft 133kts
18-Feb-19 13:45 48.534039 -122.913572 180 8053ft 142kts
18-Feb-19 13:46 48.495897 -122.897013 151 9117ft 160kts
18-Feb-19 13:47 48.447388 -122.864835 153 9100ft 210kts
18-Feb-19 13:47 48.400728 -122.841140 155 9028ft 209kts
18-Feb-19 13:48 48.347797 -122.810100 152 9045ft 202kts
18-Feb-19 13:50 48.287311 -122.776140 155 9177ft 202kts
18-Feb-19 13:50 48.242580 -122.752075 156 9209ft 205kts
18-Feb-19 13:51 48.188522 -122.721480 153 9179ft 208kts
18-Feb-19 13:52 48.133494 -122.691869 155 9126ft 212kts
18-Feb-19 13:53 48.078226 -122.661332 158 9121ft 211kts
18-Feb-19 13:54 48.022691 -122.632039 158 9014ft 216kts
18-Feb-19 13:55 47.967935 -122.600275 151 9066ft 213kts
18-Feb-19 13:56 47.912467 -122.569505 158 9086ft 212kts
18-Feb-19 13:57 47.856928 -122.539905 156 9056ft 212kts
18-Feb-19 13:58 47.801716 -122.509842 156 9031ft 212kts
18-Feb-19 13:59 47.746484 -122.481164 156 9060ft 209kts
18-Feb-19 14:00 47.692047 -122.451087 151 9051ft 207kts
18-Feb-19 14:01 47.639544 -122.417951 151 9105ft 205kts
18-Feb-19 14:02 47.585237 -122.389964 159 9093ft 209kts
18-Feb-19 14:03 47.530510 -122.362591 154 9087ft 208kts
18-Feb-19 14:04 47.476496 -122.332601 155 9073ft 208kts
18-Feb-19 14:05 47.429592 -122.292064 108 9020ft 193kts
18-Feb-19 14:06 47.414290 -122.219617 101 9109ft 185kts
18-Feb-19 14:07 47.398608 -122.147457 104 9111ft 183kts
18-Feb-19 14:08 47.383153 -122.075024 102 9148ft 181kts
18-Feb-19 14:09 47.369964 -122.001281 100 9181ft 197kts
18-Feb-19 14:10 47.354093 -121.919893 109 9159ft 210kts
18-Feb-19 14:11 47.333781 -121.837180 109 9135ft 213kts
18-Feb-19 14:12 47.316220 -121.752546 101 9246ft 203kts
18-Feb-19 14:13 47.297246 -121.682805 104 8930ft 164kts
18-Feb-19 14:14 47.283313 -121.618988 97 8898ft 167kts
18-Feb-19 14:15 47.271097 -121.552547 101 8887ft 168kts
18-Feb-19 14:16 47.258140 -121.493298 97 8940ft 162kts
18-Feb-19 14:17 47.246051 -121.428977 100 8897ft 158kts
18-Feb-19 14:18 47.233881 -121.371682 107 8683ft 161kts
18-Feb-19 14:19 47.222520 -121.316258 105 8698ft 163kts
18-Feb-19 14:20 47.206114 -121.250053 110 8748ft 178kts
18-Feb-19 14:21 47.188429 -121.181204 111 8673ft 176kts
18-Feb-19 14:22 47.172962 -121.112823 106 8684ft 183kts
18-Feb-19 14:23 47.157447 -121.040046 108 8670ft 188kts
18-Feb-19 14:24 47.142563 -120.966740 104 8710ft 187kts
18-Feb-19 14:25 47.127726 -120.894494 106 8649ft 184kts
18-Feb-19 14:26 47.117961 -120.823344 62 8746ft 174kts
18-Feb-19 14:27 47.158207 -120.804383 15 9979ft 137kts
18-Feb-19 14:28 47.195033 -120.791383 13 11358ft 134kts
18-Feb-19 14:29 47.234397 -120.771242 20 11733ft 174kts
18-Feb-19 14:30 47.283140 -120.743741 20 11713ft 194kts
18-Feb-19 14:31 47.334520 -120.716365 19 11713ft 201kts
18-Feb-19 14:32 47.387659 -120.688612 21 11662ft 201kts
18-Feb-19 14:33 47.439214 -120.663210 10 11697ft 195kts
18-Feb-19 14:34 47.492087 -120.649368 16 10941ft 195kts
18-Feb-19 14:35 47.540567 -120.621746 26 10089ft 179kts
18-Feb-19 14:36 47.583530 -120.583312 36 9014ft 178kts
18-Feb-19 14:37 47.613982 -120.536564 90 8183ft 137kts
18-Feb-19 14:38 47.592958 -120.494125 136 7163ft 122kts
18-Feb-19 14:39 47.566911 -120.454247 132 6631ft 164kts
18-Feb-19 14:40 47.533439 -120.405683 133 6364ft 159kts
18-Feb-19 14:41 47.500178 -120.360517 132 4686ft 160kts
18-Feb-19 14:42 47.472826 -120.316471 132 3719ft 131kts
18-Feb-19 14:43 47.447659 -120.279672 136 2754ft 130kts
18-Feb-19 14:44 47.424775 -120.245258 135 1925ft 102kts
18-Feb-19 14:45 47.405953 -120.217595 135 1292ft 82kts
18-Feb-19 14:46 47.400823 -120.208521 71 1252ft 4kts
18-Feb-19 14:47 47.401628 -120.207118 316 1252ft 0kts
18-Feb-19 14:48 47.401628 -120.207118 316 1252ft 0kts
18-Feb-19 14:49 47.401628 -120.207118 316 1252ft 0kts

Navigation Log

Ident Type
Flight plan parsing failed, navigation log unavailable